Time;durP1;ratioP1;P1;durP2;ratioP2;P2;SDS_P1;SDS_P2;PMS_P1;PMS_P2;Temp;Humidity;BMP_temperature;BMP_pressure;BME280_temperature;BME280_humidity;BME280_pressure;Samples;Min_cycle;Max_cycle;Signal;HPM_P1;HPM_P2
2024/01/06 00:01:23;;;;;;;;;;;;;;;4.31;100.00;95292.03;5084333;28;19986;-69
2024/01/06 00:03:49;;;;;;;;;;;;;;;4.31;100.00;95283.47;5083517;28;19936;-69
2024/01/06 00:06:16;;;;;;;;;;;;;;;4.34;100.00;95298.59;5083532;28;20302;-69
2024/01/06 00:08:41;;;;;;;;;;;;;;;4.33;100.00;95295.22;5083380;28;20240;-69
2024/01/06 00:11:07;;;;;;;;;;;;;;;4.35;100.00;95290.63;5083306;28;19970;-72
2024/01/06 00:13:33;;;;;;;;;;;;;;;4.34;100.00;95299.41;5083264;28;19994;-73
2024/01/06 00:16:00;;;;;;;;;;;;;;;4.33;100.00;95294.44;5083029;28;19961;-73
2024/01/06 00:18:26;;;;;;;;;;;;;;;4.34;100.00;95296.00;5083184;28;20230;-73
2024/01/06 00:20:52;;;;;;;;;;;;;;;4.33;100.00;95300.41;5086754;28;19941;-73
2024/01/06 00:23:18;;;;;;;;;;;;;;;4.33;100.00;95300.41;5086853;28;20247;-72
2024/01/06 00:25:44;;;;;;;;;;;;;;;4.32;100.00;95300.59;5086809;28;19940;-72
2024/01/06 00:28:09;;;;;;;;;;;;;;;4.33;100.00;95302.22;5086854;28;19956;-73
2024/01/06 00:30:35;;;;;;;;;;;;;;;4.32;100.00;95305.81;5086910;28;19976;-86
2024/01/06 00:33:01;;;;;;;;;;;;;;;4.31;100.00;95307.59;5086790;28;19930;-70
2024/01/06 00:35:27;;;;;;;;;;;;;;;4.30;100.00;95305.22;5086738;28;19942;-69
2024/01/06 00:37:55;;;;;;;;;;;;;;;4.28;100.00;95305.41;5086633;28;19938;-70
2024/01/06 00:40:21;;;;;;;;;;;;;;;4.27;100.00;95315.00;5086718;28;20119;-70
2024/01/06 00:42:46;;;;;;;;;;;;;;;4.27;100.00;95316.81;5086784;28;19944;-70
2024/01/06 00:45:12;;;;;;;;;;;;;;;4.25;100.00;95316.22;5087244;28;20202;-71
2024/01/06 00:47:38;;;;;;;;;;;;;;;4.25;100.00;95327.38;5085568;28;20008;-67
2024/01/06 00:50:04;;;;;;;;;;;;;;;4.24;100.00;95331.00;5086539;28;19941;-77
2024/01/06 00:52:30;;;;;;;;;;;;;;;4.24;100.00;95336.19;5087305;28;19949;-77
2024/01/06 00:54:56;;;;;;;;;;;;;;;4.24;100.00;95341.38;5086403;28;19935;-77
2024/01/06 00:57:24;;;;;;;;;;;;;;;4.22;100.00;95338.19;5086410;28;19999;-77
2024/01/06 00:59:50;;;;;;;;;;;;;;;4.24;100.00;95343.16;5086375;28;20107;-77
2024/01/06 01:02:16;;;;;;;;;;;;;;;4.22;100.00;95345.16;5086890;28;19934;-77
2024/01/06 01:04:42;;;;;;;;;;;;;;;4.19;100.00;95345.56;5086476;28;19949;-76
2024/01/06 01:07:08;;;;;;;;;;;;;;;4.19;100.00;95346.38;5086368;28;19960;-69
2024/01/06 01:09:34;;;;;;;;;;;;;;;4.19;100.00;95348.16;5086667;28;20142;-77
2024/01/06 01:12:00;;;;;;;;;;;;;;;4.17;100.00;95350.97;5087007;28;19943;-76
2024/01/06 01:14:26;;;;;;;;;;;;;;;4.15;100.00;95342.59;5086159;28;19945;-77
2024/01/06 01:16:52;;;;;;;;;;;;;;;4.14;100.00;95351.38;5086144;28;19940;-77
2024/01/06 01:19:18;;;;;;;;;;;;;;;4.13;100.00;95348.97;5086003;28;19938;-77
2024/01/06 01:21:43;;;;;;;;;;;;;;;4.11;100.00;95345.78;5086742;28;20031;-77
2024/01/06 01:24:09;;;;;;;;;;;;;;;4.09;100.00;95345.19;5085986;28;19937;-76
2024/01/06 01:26:35;;;;;;;;;;;;;;;4.07;100.00;95350.59;5085976;28;19973;-70
2024/01/06 01:29:01;;;;;;;;;;;;;;;4.04;100.00;95362.16;5085858;28;20005;-87
2024/01/06 01:31:27;;;;;;;;;;;;;;;4.03;100.00;95354.59;5084989;28;19953;-87
2024/01/06 01:33:53;;;;;;;;;;;;;;;4.03;100.00;95362.38;5085948;28;19935;-87
2024/01/06 01:36:19;;;;;;;;;;;;;;;4.01;100.00;95367.78;5085902;28;19938;-87
2024/01/06 01:38:45;;;;;;;;;;;;;;;4.02;100.00;95371.97;5085681;28;19998;-87
2024/01/06 01:41:11;;;;;;;;;;;;;;;4.00;100.00;95366.16;5086281;28;19948;-87
2024/01/06 01:43:37;;;;;;;;;;;;;;;4.00;100.00;95375.75;5085583;28;20161;-69
2024/01/06 01:46:04;;;;;;;;;;;;;;;3.99;100.00;95376.75;5085490;28;19937;-73
2024/01/06 01:48:30;;;;;;;;;;;;;;;3.97;100.00;95376.97;5085407;28;19958;-73
2024/01/06 01:50:56;;;;;;;;;;;;;;;3.96;100.00;95377.16;5085379;28;20138;-73
2024/01/06 01:53:24;;;;;;;;;;;;;;;3.96;100.00;95382.34;5086189;28;19940;-73
2024/01/06 01:55:50;;;;;;;;;;;;;;;3.94;100.00;95392.13;5085511;28;19956;-73
2024/01/06 01:58:16;;;;;;;;;;;;;;;3.93;100.00;95395.72;5086000;28;19940;-73
2024/01/06 02:00:41;;;;;;;;;;;;;;;3.91;100.00;95392.53;5085157;28;20272;-87
2024/01/06 02:03:09;;;;;;;;;;;;;;;3.92;100.00;95391.53;5085191;28;20001;-71
2024/01/06 02:05:35;;;;;;;;;;;;;;;3.90;100.00;95398.72;5085039;28;19949;-87
2024/01/06 02:08:00;;;;;;;;;;;;;;;3.89;100.00;95403.13;5085004;28;19994;-87
2024/01/06 02:10:26;;;;;;;;;;;;;;;3.89;100.00;95397.13;5084989;28;20260;-87
2024/01/06 02:12:52;;;;;;;;;;;;;;;3.90;100.00;95406.50;5084928;28;20274;-87
2024/01/06 02:15:19;;;;;;;;;;;;;;;3.89;100.00;95402.31;5085462;28;19929;-87
2024/01/06 02:17:44;;;;;;;;;;;;;;;3.88;100.00;95408.50;5083709;28;19946;-87
2024/01/06 02:20:11;;;;;;;;;;;;;;;3.89;100.00;95410.09;5084935;28;19938;-70
2024/01/06 02:22:37;;;;;;;;;;;;;;;3.89;100.00;95410.91;5084823;28;19938;-68
2024/01/06 02:25:07;;;;;;;;;;;;;;;3.88;100.00;95405.91;5084667;28;20292;-68
2024/01/06 02:27:33;;;;;;;;;;;;;;;3.87;100.00;95399.91;5084676;28;19936;-68
2024/01/06 02:29:59;;;;;;;;;;;;;;;3.84;100.00;95405.50;5084531;28;20000;-68
2024/01/06 02:32:24;;;;;;;;;;;;;;;3.84;100.00;95406.31;5084490;28;20126;-69
2024/01/06 02:34:50;;;;;;;;;;;;;;;3.85;100.00;95409.69;5084404;28;19943;-69
2024/01/06 02:37:16;;;;;;;;;;;;;;;3.83;100.00;95404.72;5084438;28;19979;-71
2024/01/06 02:39:42;;;;;;;;;;;;;;;3.84;100.00;95413.28;5084538;28;19957;-68
2024/01/06 02:42:08;;;;;;;;;;;;;;;3.84;100.00;95418.47;5085039;28;20194;-67
2024/01/06 02:44:34;;;;;;;;;;;;;;;3.82;100.00;95413.50;5084361;28;19984;-68
2024/01/06 02:46:59;;;;;;;;;;;;;;;3.82;100.00;95415.28;5084373;28;19977;-68
2024/01/06 02:49:25;;;;;;;;;;;;;;;3.79;100.00;95419.06;5084205;28;20240;-68
2024/01/06 02:51:51;;;;;;;;;;;;;;;3.79;100.00;95419.06;5084242;28;19937;-68
2024/01/06 02:54:17;;;;;;;;;;;;;;;3.78;100.00;95416.66;5084175;28;19941;-67
2024/01/06 02:56:43;;;;;;;;;;;;;;;3.76;100.00;95414.28;5084977;28;19941;-72
2024/01/06 02:59:09;;;;;;;;;;;;;;;3.76;100.00;95406.50;5084213;28;20013;-76
2024/01/06 03:01:35;;;;;;;;;;;;;;;3.75;100.00;95417.88;5083045;28;19939;-76
2024/01/06 03:04:00;;;;;;;;;;;;;;;3.75;100.00;95414.50;5084646;28;19934;-77
2024/01/06 03:06:26;;;;;;;;;;;;;;;3.74;100.00;95412.88;5084103;28;20021;-76
2024/01/06 03:08:52;;;;;;;;;;;;;;;3.73;100.00;95417.28;5084040;28;19968;-76
2024/01/06 03:11:18;;;;;;;;;;;;;;;3.73;100.00;95416.47;5084198;28;19941;-76
2024/01/06 03:13:44;;;;;;;;;;;;;;;3.72;100.00;95407.13;5082776;28;19947;-76
2024/01/06 03:16:11;;;;;;;;;;;;;;;3.71;100.00;95400.31;5084820;28;19940;-71
2024/01/06 03:18:37;;;;;;;;;;;;;;;3.69;100.00;95399.72;5083601;28;19945;-71
2024/01/06 03:21:03;;;;;;;;;;;;;;;3.64;100.00;95408.13;5083862;28;19935;-71
2024/01/06 03:23:29;;;;;;;;;;;;;;;3.63;100.00;95402.13;5083827;28;19943;-71
2024/01/06 03:25:54;;;;;;;;;;;;;;;3.63;100.00;95399.53;5083811;28;19945;-71
2024/01/06 03:28:20;;;;;;;;;;;;;;;3.63;100.00;95403.91;5083630;28;19937;-72
2024/01/06 03:30:46;;;;;;;;;;;;;;;3.63;100.00;95402.13;5084597;28;19942;-71
2024/01/06 03:33:12;;;;;;;;;;;;;;;3.62;100.00;95407.50;5083780;28;19938;-73
2024/01/06 03:35:38;;;;;;;;;;;;;;;3.60;100.00;95402.53;5083844;28;20195;-69
2024/01/06 03:38:04;;;;;;;;;;;;;;;3.60;100.00;95401.72;5084513;28;20001;-86
2024/01/06 03:40:29;;;;;;;;;;;;;;;3.59;100.00;95400.13;5084310;28;19937;-86
2024/01/06 03:42:55;;;;;;;;;;;;;;;3.59;100.00;95403.53;5083811;28;20151;-85
2024/01/06 03:45:21;;;;;;;;;;;;;;;3.59;100.00;95400.94;5084296;28;19981;-86
2024/01/06 03:47:47;;;;;;;;;;;;;;;3.58;100.00;95394.16;5083786;28;19941;-86
2024/01/06 03:50:13;;;;;;;;;;;;;;;3.58;100.00;95401.13;5083547;28;19956;-86
2024/01/06 03:52:39;;;;;;;;;;;;;;;3.57;100.00;95402.13;5083612;28;19983;-75
2024/01/06 03:55:05;;;;;;;;;;;;;;;3.57;100.00;95402.13;5085959;28;19936;-87
2024/01/06 03:57:31;;;;;;;;;;;;;;;3.57;100.00;95399.53;5087653;28;19943;-87
2024/01/06 03:59:57;;;;;;;;;;;;;;;3.57;100.00;95400.34;5087726;28;19937;-86
2024/01/06 04:02:23;;;;;;;;;;;;;;;3.57;100.00;95402.13;5087737;28;19934;-87
2024/01/06 04:04:49;;;;;;;;;;;;;;;3.56;100.00;95405.72;5088095;28;19946;-87
2024/01/06 04:07:15;;;;;;;;;;;;;;;3.56;100.00;95413.50;5087884;28;20126;-87
2024/01/06 04:09:44;;;;;;;;;;;;;;;3.55;100.00;95404.09;5087231;28;19974;-76
2024/01/06 04:12:10;;;;;;;;;;;;;;;3.55;100.00;95406.69;5088204;28;20203;-71
2024/01/06 04:14:36;;;;;;;;;;;;;;;3.55;100.00;95411.88;5086707;28;19979;-71
2024/01/06 04:17:01;;;;;;;;;;;;;;;3.53;100.00;95409.50;5087276;28;19944;-71
2024/01/06 04:19:27;;;;;;;;;;;;;;;3.54;100.00;95405.13;5086818;28;19943;-71
2024/01/06 04:21:54;;;;;;;;;;;;;;;3.53;100.00;95406.91;5087144;28;20008;-71
2024/01/06 04:24:19;;;;;;;;;;;;;;;3.50;100.00;95409.88;5087065;28;20122;-70
2024/01/06 04:26:45;;;;;;;;;;;;;;;3.50;100.00;95414.28;5087083;28;19946;-71
2024/01/06 04:29:14;;;;;;;;;;;;;;;3.48;100.00;95417.06;5086562;28;19960;-76
2024/01/06 04:31:40;;;;;;;;;;;;;;;3.48;100.00;95424.06;5087037;28;20140;-76
2024/01/06 04:34:06;;;;;;;;;;;;;;;3.48;100.00;95418.88;5086947;28;19934;-76
2024/01/06 04:36:32;;;;;;;;;;;;;;;3.48;100.00;95413.69;5087689;28;19948;-76
2024/01/06 04:38:58;;;;;;;;;;;;;;;3.47;100.00;95410.31;5086874;28;19941;-76
2024/01/06 04:41:23;;;;;;;;;;;;;;;3.47;100.00;95414.69;5087603;28;20008;-76
2024/01/06 04:43:49;;;;;;;;;;;;;;;3.46;100.00;95411.28;5086776;28;20211;-77
2024/01/06 04:46:15;;;;;;;;;;;;;;;3.47;100.00;95422.47;5087504;28;20105;-76
2024/01/06 04:48:41;;;;;;;;;;;;;;;3.48;100.00;95426.66;5087511;28;19936;-71
2024/01/06 04:51:09;;;;;;;;;;;;;;;3.48;100.00;95430.03;5086651;28;19944;-68
2024/01/06 04:53:36;;;;;;;;;;;;;;;3.49;100.00;95431.63;5086621;28;19950;-68
2024/01/06 04:56:04;;;;;;;;;;;;;;;3.49;100.00;95434.22;5086551;28;19947;-67
2024/01/06 04:58:30;;;;;;;;;;;;;;;3.50;100.00;95422.84;5087063;28;20126;-68
2024/01/06 05:00:56;;;;;;;;;;;;;;;3.51;100.00;95436.59;5086185;28;19947;-67
2024/01/06 05:03:22;;;;;;;;;;;;;;;3.50;100.00;95428.03;5086408;28;20236;-68
2024/01/06 05:05:48;;;;;;;;;;;;;;;3.51;100.00;95428.81;5085056;28;19948;-70
2024/01/06 05:08:14;;;;;;;;;;;;;;;3.52;100.00;95433.03;5086792;28;19957;-73
2024/01/06 05:10:40;;;;;;;;;;;;;;;3.52;100.00;95430.44;5086190;28;20027;-73
2024/01/06 05:13:06;;;;;;;;;;;;;;;3.52;100.00;95431.22;5086252;28;19940;-73
2024/01/06 05:15:31;;;;;;;;;;;;;;;3.54;100.00;95431.81;5086966;28;20006;-73
2024/01/06 05:17:57;;;;;;;;;;;;;;;3.53;100.00;95430.25;5086135;28;19934;-73
2024/01/06 05:20:23;;;;;;;;;;;;;;;3.53;100.00;95440.63;5086095;28;19946;-73
2024/01/06 05:22:49;;;;;;;;;;;;;;;3.52;100.00;95436.41;5086090;28;19937;-72
2024/01/06 05:25:15;;;;;;;;;;;;;;;3.53;100.00;95432.00;5086041;28;20226;-72
2024/01/06 05:27:40;;;;;;;;;;;;;;;3.54;100.00;95438.81;5086818;28;20204;-67
2024/01/06 05:30:08;;;;;;;;;;;;;;;3.54;100.00;95441.41;5086139;28;19951;-67
2024/01/06 05:32:33;;;;;;;;;;;;;;;3.55;100.00;95442.97;5085916;28;19938;-67
2024/01/06 05:34:59;;;;;;;;;;;;;;;3.55;100.00;95451.59;5085821;28;19937;-67
2024/01/06 05:37:25;;;;;;;;;;;;;;;3.56;100.00;95449.78;5085732;28;19939;-68
2024/01/06 05:39:51;;;;;;;;;;;;;;;3.57;100.00;95453.97;5086275;28;20216;-67
2024/01/06 05:42:17;;;;;;;;;;;;;;;3.57;100.00;95449.59;5086219;28;19934;-68
2024/01/06 05:44:43;;;;;;;;;;;;;;;3.59;100.00;95454.56;5085618;28;19981;-76
2024/01/06 05:47:09;;;;;;;;;;;;;;;3.58;100.00;95456.34;5085615;28;20013;-76
2024/01/06 05:49:35;;;;;;;;;;;;;;;3.58;100.00;95461.53;5086045;28;19955;-76
2024/01/06 05:52:00;;;;;;;;;;;;;;;3.59;100.00;95472.69;5085528;28;20244;-76
2024/01/06 05:54:26;;;;;;;;;;;;;;;3.59;100.00;95470.09;5085377;28;20001;-76
2024/01/06 05:56:52;;;;;;;;;;;;;;;3.58;100.00;95471.13;5085482;28;19941;-76
2024/01/06 05:59:18;;;;;;;;;;;;;;;3.58;100.00;95479.69;5085893;28;19961;-76
2024/01/06 06:01:44;;;;;;;;;;;;;;;3.59;100.00;95480.47;5085327;28;20060;-70
2024/01/06 06:04:10;;;;;;;;;;;;;;;3.60;100.00;95482.09;5085243;28;19940;-71
2024/01/06 06:06:37;;;;;;;;;;;;;;;3.60;100.00;95489.88;5085885;28;20107;-71
2024/01/06 06:09:06;;;;;;;;;;;;;;;3.61;100.00;95486.25;5084813;28;19966;-71
2024/01/06 06:11:33;;;;;;;;;;;;;;;3.62;100.00;95495.66;5085390;28;20103;-71
2024/01/06 06:13:58;;;;;;;;;;;;;;;3.63;100.00;95510.19;5085790;28;19946;-71
2024/01/06 06:16:24;;;;;;;;;;;;;;;3.63;100.00;95500.66;5084871;28;20160;-71
2024/01/06 06:18:50;;;;;;;;;;;;;;;3.63;100.00;95494.66;5084706;28;19959;-70
2024/01/06 06:21:16;;;;;;;;;;;;;;;3.61;100.00;95499.22;5084906;28;20269;-73
2024/01/06 06:23:42;;;;;;;;;;;;;;;3.62;100.00;95513.81;5084878;28;20223;-71
2024/01/06 06:26:08;;;;;;;;;;;;;;;3.61;100.00;95513.00;5085357;28;20001;-71
2024/01/06 06:28:34;;;;;;;;;;;;;;;3.62;100.00;95519.78;5084803;28;20228;-71
2024/01/06 06:31:03;;;;;;;;;;;;;;;3.62;100.00;95517.19;5084650;28;19956;-71
2024/01/06 06:33:29;;;;;;;;;;;;;;;3.65;100.00;95521.16;5084663;28;19940;-71
2024/01/06 06:35:55;;;;;;;;;;;;;;;3.65;100.00;95528.94;5084698;28;20026;-71
2024/01/06 06:38:21;;;;;;;;;;;;;;;3.64;100.00;95528.16;5085438;28;20213;-68
2024/01/06 06:40:47;;;;;;;;;;;;;;;3.62;100.00;95532.75;5085358;28;19934;-71
2024/01/06 06:43:14;;;;;;;;;;;;;;;3.61;100.00;95533.75;5084513;28;19941;-71
2024/01/06 06:45:39;;;;;;;;;;;;;;;3.62;100.00;95537.13;5084726;28;19940;-71
2024/01/06 06:48:06;;;;;;;;;;;;;;;3.63;100.00;95542.13;5084917;28;19940;-70
2024/01/06 06:50:32;;;;;;;;;;;;;;;3.63;100.00;95544.72;5084269;28;19956;-71
2024/01/06 06:52:58;;;;;;;;;;;;;;;3.64;100.00;95540.31;5084361;28;20273;-71
2024/01/06 06:55:24;;;;;;;;;;;;;;;3.64;100.00;95532.56;5084826;28;19935;-67
2024/01/06 06:57:52;;;;;;;;;;;;;;;3.62;100.00;95544.91;5083898;28;20452;-69
2024/01/06 07:00:18;;;;;;;;;;;;;;;3.61;100.00;95543.31;5084283;28;20221;-77
2024/01/06 07:02:44;;;;;;;;;;;;;;;3.62;100.00;95543.13;5083101;28;19946;-76
2024/01/06 07:05:09;;;;;;;;;;;;;;;3.63;100.00;95551.69;5084975;28;20205;-76
2024/01/06 07:07:35;;;;;;;;;;;;;;;3.63;100.00;95547.31;5084045;28;19941;-76
2024/01/06 07:10:03;;;;;;;;;;;;;;;3.65;100.00;95547.09;5083924;28;20158;-76
2024/01/06 07:12:28;;;;;;;;;;;;;;;3.65;100.00;95553.09;5084276;28;19942;-76
2024/01/06 07:14:54;;;;;;;;;;;;;;;3.67;100.00;95558.06;5084642;28;19944;-76
2024/01/06 07:17:20;;;;;;;;;;;;;;;3.68;100.00;95561.50;5083984;28;19986;-71
2024/01/06 07:19:46;;;;;;;;;;;;;;;3.68;100.00;95564.06;5084037;28;19941;-71
2024/01/06 07:22:12;;;;;;;;;;;;;;;3.68;100.00;95562.28;5083970;28;19973;-71
2024/01/06 07:24:37;;;;;;;;;;;;;;;3.69;100.00;95561.28;5084211;28;19945;-71
2024/01/06 07:27:04;;;;;;;;;;;;;;;3.69;100.00;95557.88;5083920;28;19934;-71
2024/01/06 07:29:30;;;;;;;;;;;;;;;3.68;100.00;95557.09;5083849;28;19955;-71
2024/01/06 07:31:56;;;;;;;;;;;;;;;3.66;100.00;95562.47;5083796;28;19963;-76
2024/01/06 07:34:22;;;;;;;;;;;;;;;3.65;100.00;95568.66;5083842;28;19934;-75
2024/01/06 07:36:48;;;;;;;;;;;;;;;3.66;100.00;95569.44;5083862;28;20120;-68
2024/01/06 07:39:14;;;;;;;;;;;;;;;3.64;100.00;95574.81;5084584;28;19930;-68
2024/01/06 07:41:40;;;;;;;;;;;;;;;3.65;100.00;95578.22;5083704;28;19965;-68
2024/01/06 07:44:06;;;;;;;;;;;;;;;3.67;100.00;95581.41;5083729;28;20014;-68
2024/01/06 07:46:32;;;;;;;;;;;;;;;3.66;100.00;95585.81;5083704;28;19944;-67
2024/01/06 07:48:57;;;;;;;;;;;;;;;3.67;100.00;95581.41;5083728;28;19944;-68
2024/01/06 07:51:24;;;;;;;;;;;;;;;3.69;100.00;95576.03;5083616;28;19958;-71
2024/01/06 07:53:50;;;;;;;;;;;;;;;3.70;100.00;95581.03;5083689;28;19938;-71
2024/01/06 07:56:16;;;;;;;;;;;;;;;3.74;100.00;95581.41;5083582;28;20317;-71
2024/01/06 07:58:42;;;;;;;;;;;;;;;3.74;100.00;95573.63;5084045;28;20205;-72
2024/01/06 08:01:08;;;;;;;;;;;;;;;3.75;100.00;95577.84;5084338;28;20167;-71
2024/01/06 08:03:34;;;;;;;;;;;;;;;3.77;100.00;95575.84;5083575;28;19938;-71
2024/01/06 08:06:00;;;;;;;;;;;;;;;3.79;100.00;95574.66;5083560;28;19941;-72
2024/01/06 08:08:26;;;;;;;;;;;;;;;3.83;100.00;95572.47;5083407;28;19982;-71
2024/01/06 08:10:52;;;;;;;;;;;;;;;3.86;100.00;95572.06;5083339;28;19989;-72
2024/01/06 08:13:18;;;;;;;;;;;;;;;3.90;100.00;95577.69;5083533;28;19939;-72
2024/01/06 08:15:43;;;;;;;;;;;;;;;3.95;100.00;95580.47;5083393;28;20221;-72
2024/01/06 08:18:09;;;;;;;;;;;;;;;4.00;100.00;95580.69;5083363;28;20221;-72
2024/01/06 08:20:35;;;;;;;;;;;;;;;4.02;100.00;95574.28;5083313;28;20198;-71
2024/01/06 08:23:01;;;;;;;;;;;;;;;4.08;100.00;95583.09;5083396;28;19940;-71
2024/01/06 08:25:27;;;;;;;;;;;;;;;4.13;100.00;95588.47;5083224;28;19937;-71
2024/01/06 08:27:53;;;;;;;;;;;;;;;4.17;100.00;95579.28;5083224;28;19942;-70
2024/01/06 08:30:19;;;;;;;;;;;;;;;4.21;100.00;95580.50;5083237;28;19977;-71
2024/01/06 08:32:45;;;;;;;;;;;;;;;4.26;100.00;95583.31;5083328;28;20239;-70
2024/01/06 08:35:11;;;;;;;;;;;;;;;4.30;100.00;95586.28;5083784;28;19937;-69
2024/01/06 08:37:36;;;;;;;;;;;;;;;4.33;100.00;95583.31;5083485;28;19939;-71
2024/01/06 08:40:04;;;;;;;;;;;;;;;4.36;100.00;95587.28;5083748;28;19943;-70
2024/01/06 08:42:30;;;;;;;;;;;;;;;4.37;100.00;95591.50;5086750;28;19940;-70
2024/01/06 08:44:56;;;;;;;;;;;;;;;4.35;100.00;95591.69;5087578;28;19985;-69
2024/01/06 08:47:21;;;;;;;;;;;;;;;4.33;100.00;95585.13;5087290;28;19939;-71
2024/01/06 08:49:47;;;;;;;;;;;;;;;4.29;100.00;95597.69;5086608;28;19948;-88
2024/01/06 08:52:13;;;;;;;;;;;;;;;4.27;100.00;95597.88;5086617;28;19941;-85
2024/01/06 08:54:39;;;;;;;;;;;;;;;4.26;100.00;95592.88;5069685;28;20027;-88
2024/01/06 08:57:05;;;;;;;;;;;;;;;4.23;100.00;95599.25;5086531;28;19974;-87
2024/01/06 08:59:31;;;;;;;;;;;;;;;4.24;100.00;95595.69;5086414;28;19937;-87
2024/01/06 09:01:57;;;;;;;;;;;;;;;4.24;100.00;95608.66;5087035;28;19939;-89
2024/01/06 09:04:22;;;;;;;;;;;;;;;4.26;100.00;95595.47;5086149;28;19938;-72
2024/01/06 09:06:49;;;;;;;;;;;;;;;4.23;100.00;95588.88;5086370;28;19949;-68
2024/01/06 09:09:14;;;;;;;;;;;;;;;4.24;100.00;95593.09;5086479;28;20265;-69
2024/01/06 09:11:42;;;;;;;;;;;;;;;4.30;100.00;95593.28;5086737;28;20025;-69
2024/01/06 09:14:07;;;;;;;;;;;;;;;4.34;100.00;95599.66;5086111;28;19940;-69
2024/01/06 09:16:33;;;;;;;;;;;;;;;4.40;100.00;95622.25;5086941;28;20294;-69
2024/01/06 09:18:59;;;;;;;;;;;;;;;4.46;100.00;95608.47;5086566;28;19959;-70
2024/01/06 09:21:26;;;;;;;;;;;;;;;4.49;100.00;95618.44;5086079;28;19938;-69
2024/01/06 09:23:51;;;;;;;;;;;;;;;4.53;100.00;95604.06;5086052;28;19941;-70
2024/01/06 09:26:17;;;;;;;;;;;;;;;4.57;100.00;95612.25;5086850;28;20116;-71
2024/01/06 09:28:43;;;;;;;;;;;;;;;4.62;100.00;95617.63;5086683;28;19938;-70
2024/01/06 09:31:09;;;;;;;;;;;;;;;4.65;100.00;95619.84;5085870;28;20023;-69
2024/01/06 09:33:35;;;;;;;;;;;;;;;4.67;100.00;95621.22;5085849;28;19962;-69
2024/01/06 09:36:01;;;;;;;;;;;;;;;4.68;100.00;95622.03;5085860;28;20240;-70
2024/01/06 09:38:27;;;;;;;;;;;;;;;4.72;100.00;95623.22;5086330;28;19938;-69
2024/01/06 09:40:53;;;;;;;;;;;;;;;4.72;100.00;95612.84;5085771;28;19983;-71
2024/01/06 09:43:19;;;;;;;;;;;;;;;4.77;100.00;95633.03;5086307;28;19936;-87
2024/01/06 09:45:48;;;;;;;;;;;;;;;4.79;100.00;95618.84;5086376;28;19935;-72
2024/01/06 09:48:14;;;;;;;;;;;;;;;4.81;100.00;95618.66;5085593;28;19938;-72
2024/01/06 09:50:40;;;;;;;;;;;;;;;4.81;100.00;95623.84;5085421;28;19957;-72
2024/01/06 09:53:06;;;;;;;;;;;;;;;4.80;100.00;95617.03;5084733;28;20243;-72
2024/01/06 09:55:32;;;;;;;;;;;;;;;4.81;100.00;95619.44;5085438;28;19946;-71
2024/01/06 09:57:58;;;;;;;;;;;;;;;4.84;100.00;95620.81;5086190;28;19931;-72
2024/01/06 10:00:24;;;;;;;;;;;;;;;4.82;100.00;95628.81;5085392;28;20043;-76
2024/01/06 10:02:53;;;;;;;;;;;;;;;4.85;100.00;95635.41;5085351;28;19946;-70
2024/01/06 10:05:18;;;;;;;;;;;;;;;4.81;100.00;95608.25;5086115;28;20135;-70
2024/01/06 10:07:45;;;;;;;;;;;;;;;4.79;100.00;95616.25;5085576;28;19941;-70
2024/01/06 10:10:11;;;;;;;;;;;;;;;4.79;100.00;95620.66;5084905;28;20160;-70
2024/01/06 10:12:37;;;;;;;;;;;;;;;4.83;100.00;95620.03;5085067;28;19940;-70
2024/01/06 10:15:03;;;;;;;;;;;;;;;4.83;100.00;95625.22;5085057;28;19957;-71
2024/01/06 10:17:29;;;;;;;;;;;;;;;4.86;100.00;95627.41;5084958;28;20125;-72
2024/01/06 10:19:56;;;;;;;;;;;;;;;4.85;100.00;95617.22;5085563;28;19964;-88
2024/01/06 10:22:22;;;;;;;;;;;;;;;4.83;100.00;95634.78;5085327;28;19937;-87
2024/01/06 10:24:48;;;;;;;;;;;;;;;4.81;100.00;95634.22;5085755;28;19973;-86
2024/01/06 10:27:14;;;;;;;;;;;;;;;4.81;100.00;95632.41;5084855;28;19945;-86
2024/01/06 10:29:39;;;;;;;;;;;;;;;4.80;100.00;95636.00;5084771;28;19936;-87
2024/01/06 10:32:05;;;;;;;;;;;;;;;4.80;100.00;95615.22;5085286;28;19957;-87
2024/01/06 10:34:32;;;;;;;;;;;;;;;4.79;100.00;95638.81;5084807;28;19946;-86
2024/01/06 10:36:58;;;;;;;;;;;;;;;4.82;100.00;95623.63;5084718;28;20123;-71
2024/01/06 10:39:25;;;;;;;;;;;;;;;4.85;100.00;95638.00;5084643;28;19940;-73
2024/01/06 10:41:52;;;;;;;;;;;;;;;4.89;100.00;95628.81;5085041;28;19947;-73
2024/01/06 10:44:19;;;;;;;;;;;;;;;4.95;100.00;95642.78;5084773;28;19994;-73
2024/01/06 10:46:45;;;;;;;;;;;;;;;4.99;100.00;95638.78;5084457;28;20093;-73
2024/01/06 10:49:12;;;;;;;;;;;;;;;4.98;100.00;95624.22;5084982;28;19934;-73
2024/01/06 10:51:38;;;;;;;;;;;;;;;4.95;100.00;95617.59;5084811;28;19950;-73
2024/01/06 10:54:05;;;;;;;;;;;;;;;4.95;100.00;95635.00;5084339;28;19935;-73
2024/01/06 10:56:36;;;;;;;;;;;;;;;4.92;100.00;95636.22;5084878;28;20108;-70
2024/01/06 10:59:03;;;;;;;;;;;;;;;4.95;100.00;95640.19;5085102;28;19936;-73
2024/01/06 11:01:29;;;;;;;;;;;;;;;4.99;100.00;95641.38;5084246;28;19930;-73
2024/01/06 11:03:55;;;;;;;;;;;;;;;5.00;100.00;95635.22;5084154;28;19935;-72
2024/01/06 11:06:21;;;;;;;;;;;;;;;5.04;100.00;95629.41;5084190;28;19938;-74
2024/01/06 11:08:53;;;;;;;;;;;;;;;5.07;100.00;95628.97;5083957;28;19960;-73
2024/01/06 11:11:19;;;;;;;;;;;;;;;5.14;100.00;95630.75;5084354;28;19954;-73
2024/01/06 11:13:46;;;;;;;;;;;;;;;5.20;100.00;95628.13;5084107;28;19939;-75
2024/01/06 11:16:33;;;;;;;;;;;;;;;5.24;100.00;95634.53;5084069;28;20242;-69
2024/01/06 11:18:59;;;;;;;;;;;;;;;5.31;100.00;95637.09;5084033;28;19944;-69
2024/01/06 11:21:25;;;;;;;;;;;;;;;5.37;100.00;95635.50;5084189;28;19933;-69
2024/01/06 11:24:06;;;;;;;;;;;;;;;5.38;100.00;95632.72;5084435;28;19937;-70
2024/01/06 11:26:32;;;;;;;;;;;;;;;5.37;100.00;95610.28;5084450;28;19943;-69
2024/01/06 11:28:59;;;;;;;;;;;;;;;5.37;100.00;95619.91;5083910;28;19944;-69
2024/01/06 11:31:30;;;;;;;;;;;;;;;5.36;100.00;95624.31;5083798;28;19952;-73
2024/01/06 11:33:56;;;;;;;;;;;;;;;5.36;100.00;95626.13;5084409;28;19934;-76
2024/01/06 11:36:22;;;;;;;;;;;;;;;5.34;100.00;95615.13;5083852;28;19931;-88
2024/01/06 11:38:50;;;;;;;;;;;;;;;5.27;100.00;95607.31;5083965;28;19933;-88
2024/01/06 11:41:35;;;;;;;;;;;;;;;5.21;100.00;95616.75;5083156;28;19942;-88
2024/01/06 11:44:01;;;;;;;;;;;;;;;5.16;100.00;95618.38;5083971;28;19947;-88
2024/01/06 11:46:28;;;;;;;;;;;;;;;5.15;100.00;95616.78;5084581;28;19935;-88
2024/01/06 11:48:54;;;;;;;;;;;;;;;5.15;100.00;95606.38;5083696;28;19939;-88
2024/01/06 11:51:20;;;;;;;;;;;;;;;5.13;100.00;95601.38;5083637;28;19993;-72
2024/01/06 11:53:46;;;;;;;;;;;;;;;5.15;100.00;95611.59;5084518;28;19984;-73
2024/01/06 11:56:12;;;;;;;;;;;;;;;5.20;100.00;95609.94;5083762;28;19935;-72
2024/01/06 11:58:41;;;;;;;;;;;;;;;5.24;100.00;95608.53;5083664;28;19938;-72
2024/01/06 12:01:07;;;;;;;;;;;;;;;5.32;100.00;95604.13;5083600;28;19947;-73
2024/01/06 12:03:33;;;;;;;;;;;;;;;5.36;100.00;95603.50;5083646;28;20130;-72
2024/01/06 12:06:00;;;;;;;;;;;;;;;5.42;100.00;95596.69;5084121;28;20125;-72
2024/01/06 12:08:27;;;;;;;;;;;;;;;5.44;100.00;95600.69;5083511;28;19944;-73
2024/01/06 12:11:01;;;;;;;;;;;;;;;5.47;100.00;95596.88;5083447;28;20253;-69
2024/01/06 12:13:27;;;;;;;;;;;;;;;5.48;100.00;95593.25;5084042;28;19942;-76
2024/01/06 12:15:54;;;;;;;;;;;;;;;5.49;100.00;95603.44;5085291;28;19939;-76
2024/01/06 12:18:20;;;;;;;;;;;;;;;5.54;100.00;95597.63;5086041;28;19937;-79
2024/01/06 12:20:46;;;;;;;;;;;;;;;5.58;100.00;95580.59;5086082;28;19936;-76
2024/01/06 12:23:12;;;;;;;;;;;;;;;5.62;100.00;95584.38;5087737;28;19954;-76
2024/01/06 12:25:39;;;;;;;;;;;;;;;5.66;100.00;95575.16;5087176;28;20214;-76
2024/01/06 12:28:05;;;;;;;;;;;;;;;5.69;100.00;95579.97;5087085;28;20218;-73
2024/01/06 12:30:34;;;;;;;;;;;;;;;5.70;100.00;95565.94;5086541;28;19956;-69
2024/01/06 12:33:01;;;;;;;;;;;;;;;5.72;100.00;95576.16;5087514;28;19936;-68
2024/01/06 12:35:27;;;;;;;;;;;;;;;5.75;100.00;95570.50;5086922;28;19930;-69
2024/01/06 12:37:53;;;;;;;;;;;;;;;5.71;100.00;95566.72;5087486;28;20224;-68
2024/01/06 12:40:19;;;;;;;;;;;;;;;5.67;100.00;95560.38;5086880;28;19929;-68
2024/01/06 12:42:45;;;;;;;;;;;;;;;5.59;100.00;95560.63;5087096;28;19940;-69